createdAt,value
2022-09-26T00:04:29.081Z,83.74
2022-09-26T00:09:34.371Z,84.32
2022-09-26T00:14:36.794Z,84.59
2022-09-26T00:19:39.243Z,85.38
2022-09-26T00:24:41.713Z,85.42
2022-09-26T00:29:44.099Z,85.72
2022-09-26T00:34:46.498Z,85.96
2022-09-26T00:39:48.897Z,86.27
2022-09-26T00:44:54.558Z,86.36
2022-09-26T00:50:02.225Z,85.90
2022-09-26T00:55:06.126Z,85.82
2022-09-26T01:00:10.240Z,86.14
2022-09-26T01:05:14.410Z,86.44
2022-09-26T01:10:17.029Z,86.29
2022-09-26T01:16:13.564Z,86.57
2022-09-26T01:21:28.334Z,86.90
2022-09-26T01:26:34.265Z,86.95
2022-09-26T01:31:38.613Z,86.89
2022-09-26T01:36:44.442Z,87.03
2022-09-26T01:41:56.782Z,87.19
2022-09-26T01:47:00.135Z,86.66
2022-09-26T01:52:05.748Z,86.80
2022-09-26T01:57:11.001Z,87.13
2022-09-26T02:02:19.261Z,87.66
2022-09-26T02:07:26.028Z,88.04
2022-09-26T02:12:32.810Z,87.79
2022-09-26T02:17:39.562Z,87.74
2022-09-26T02:22:42.213Z,87.57
2022-09-26T02:27:44.627Z,87.99
2022-09-26T02:32:47.086Z,87.89
2022-09-26T02:37:49.504Z,87.56
2022-09-26T02:43:01.799Z,87.71
2022-09-26T02:48:14.125Z,87.85
2022-09-26T02:53:26.842Z,87.83
2022-09-26T02:58:38.834Z,88.03
2022-09-26T03:03:48.064Z,88.00
2022-09-26T03:08:51.855Z,88.33
2022-09-26T03:13:56.078Z,88.08
2022-09-26T03:19:01.292Z,88.05
2022-09-26T03:24:03.848Z,87.84
2022-09-26T03:29:06.506Z,88.16
2022-09-26T03:34:09.028Z,88.51
2022-09-26T03:39:11.637Z,88.36
2022-09-26T03:44:15.713Z,88.02
2022-09-26T03:49:18.146Z,88.15
2022-09-26T03:54:20.579Z,89.10
2022-09-26T03:59:23.035Z,89.37
2022-09-26T04:04:25.883Z,89.30
2022-09-26T04:09:28.377Z,88.88
2022-09-26T04:14:31.561Z,88.79
2022-09-26T04:19:33.992Z,89.36
2022-09-26T04:24:36.703Z,89.26
2022-09-26T04:29:39.163Z,89.67
2022-09-26T04:34:41.567Z,89.50
2022-09-26T04:39:43.954Z,89.44
2022-09-26T04:44:48.114Z,89.69
2022-09-26T04:49:50.612Z,89.40
2022-09-26T04:54:53.120Z,89.61
2022-09-26T05:00:14.368Z,89.60
2022-09-26T05:05:16.845Z,89.26
2022-09-26T05:10:19.433Z,89.38
2022-09-26T05:15:21.878Z,88.79
2022-09-26T05:20:24.577Z,88.58
2022-09-26T05:25:32.195Z,88.54
2022-09-26T05:30:35.027Z,88.37
2022-09-26T05:40:21.247Z,87.16
2022-09-26T05:45:23.794Z,87.22
2022-09-26T05:50:26.219Z,86.93
2022-09-26T05:55:29.290Z,87.13
2022-09-26T06:00:31.752Z,86.89
2022-09-26T06:05:34.611Z,86.80
2022-09-26T06:10:38.645Z,86.59
2022-09-26T06:15:43.132Z,86.50
2022-09-26T06:20:45.550Z,86.21
2022-09-26T06:25:48.018Z,85.94
2022-09-26T06:30:50.434Z,85.40
2022-09-26T06:35:55.756Z,85.29
2022-09-26T06:40:58.248Z,84.53
2022-09-26T06:46:00.929Z,83.98
2022-09-26T06:51:03.747Z,83.34
2022-09-26T06:56:06.501Z,82.70
2022-09-26T07:01:09.140Z,82.47
2022-09-26T07:06:11.661Z,81.65
2022-09-26T07:16:37.452Z,80.23
2022-09-26T07:21:39.949Z,79.39
2022-09-26T07:26:42.403Z,77.69
2022-09-26T07:31:45.407Z,75.86
2022-09-26T07:36:47.871Z,74.92
2022-09-26T07:41:50.458Z,72.25
2022-09-26T07:46:55.850Z,70.28
2022-09-26T07:52:00.574Z,68.77
2022-09-26T07:57:04.811Z,66.08
2022-09-26T08:02:20.782Z,64.79
2022-09-26T08:07:24.532Z,64.43
2022-09-26T08:12:27.110Z,60.79
2022-09-26T08:17:32.428Z,58.62
2022-09-26T08:22:34.862Z,59.08
2022-09-26T08:27:37.327Z,58.62
2022-09-26T08:32:39.736Z,58.79
2022-09-26T08:37:42.134Z,58.30
2022-09-26T08:42:45.972Z,57.52
2022-09-26T08:47:53.227Z,56.78
2022-09-26T08:53:01.440Z,55.88
2022-09-26T08:58:08.338Z,56.07
2022-09-26T09:03:12.901Z,57.16
2022-09-26T09:08:36.790Z,56.65
2022-09-26T09:13:46.108Z,54.48
2022-09-26T09:18:48.641Z,54.52
2022-09-26T09:23:57.618Z,54.22
2022-09-26T09:29:01.001Z,53.93
2022-09-26T09:34:06.726Z,53.23
2022-09-26T09:39:13.401Z,52.95
2022-09-26T09:44:25.481Z,52.58
2022-09-26T09:49:28.023Z,52.65
2022-09-26T09:54:33.399Z,52.87
2022-09-26T09:59:38.757Z,52.76
2022-09-26T10:04:44.368Z,51.61
2022-09-26T10:09:51.763Z,51.66
2022-09-26T10:15:17.294Z,52.06
2022-09-26T10:20:40.741Z,51.21
2022-09-26T10:25:47.101Z,52.26
2022-09-26T10:30:50.629Z,52.68
2022-09-26T10:35:59.528Z,52.61
2022-09-26T10:41:03.408Z,52.88
2022-09-26T10:46:06.130Z,52.48
2022-09-26T10:51:09.597Z,52.30
2022-09-26T10:56:16.847Z,52.01
2022-09-26T11:01:22.823Z,52.02
2022-09-26T11:06:28.218Z,50.03
2022-09-26T11:11:33.675Z,49.90
2022-09-26T11:16:38.675Z,48.37
2022-09-26T11:21:42.138Z,47.69
2022-09-26T11:26:49.074Z,46.82
2022-09-26T11:31:52.015Z,47.01
2022-09-26T11:36:58.485Z,46.00
2022-09-26T11:42:03.976Z,45.60
2022-09-26T11:47:09.446Z,45.97
2022-09-26T11:52:14.465Z,45.64
2022-09-26T11:57:21.418Z,45.15
2022-09-26T12:02:26.912Z,44.94
2022-09-26T12:07:32.766Z,44.89
2022-09-26T12:12:41.811Z,45.50
2022-09-26T12:17:47.815Z,45.27
2022-09-26T12:22:55.967Z,44.78
2022-09-26T12:28:09.129Z,44.47
2022-09-26T12:33:14.648Z,44.16
2022-09-26T12:38:20.434Z,44.23
2022-09-26T12:43:31.461Z,43.77
2022-09-26T12:48:37.751Z,42.99
2022-09-26T12:53:43.074Z,43.00
2022-09-26T12:59:06.943Z,42.33
2022-09-26T13:04:11.733Z,43.07
2022-09-26T13:09:15.972Z,44.25
2022-09-26T13:14:27.525Z,44.62
2022-09-26T13:19:34.582Z,45.21
2022-09-26T13:24:40.957Z,45.69
2022-09-26T13:29:46.142Z,45.80
2022-09-26T13:34:51.677Z,45.53
2022-09-26T13:39:59.926Z,45.99
2022-09-26T13:45:05.278Z,45.84
2022-09-26T13:50:12.591Z,45.44
2022-09-26T13:55:19.234Z,45.80
2022-09-26T14:00:29.787Z,46.77
2022-09-26T14:05:35.119Z,47.64
2022-09-26T14:10:39.670Z,48.23
2022-09-26T14:15:45.050Z,48.28
2022-09-26T14:20:55.002Z,48.69
2022-09-26T14:26:04.830Z,49.15
2022-09-26T14:31:11.402Z,49.73
2022-09-26T14:36:16.794Z,49.17
2022-09-26T14:41:20.775Z,47.45
2022-09-26T14:46:24.285Z,45.88
2022-09-26T14:51:30.357Z,45.77
2022-09-26T14:56:41.172Z,44.84
2022-09-26T15:01:44.385Z,44.28
2022-09-26T15:06:48.764Z,44.85
2022-09-26T15:11:55.153Z,45.23
2022-09-26T15:16:59.086Z,45.29
2022-09-26T15:22:04.523Z,45.65
2022-09-26T15:27:11.018Z,46.95
2022-09-26T15:32:19.915Z,48.14
2022-09-26T15:37:23.443Z,48.96
2022-09-26T15:42:28.822Z,49.82
2022-09-26T15:47:31.715Z,50.58
2022-09-26T15:52:35.139Z,51.69
2022-09-26T15:57:37.627Z,52.75
2022-09-26T16:02:40.920Z,53.47
2022-09-26T16:07:47.828Z,55.03
2022-09-26T16:12:50.340Z,56.47
2022-09-26T16:17:53.987Z,57.70
2022-09-26T16:23:04.360Z,58.93
2022-09-26T16:28:10.260Z,60.06
2022-09-26T16:33:15.980Z,61.28
2022-09-26T16:38:22.496Z,62.12
2022-09-26T16:43:27.126Z,63.25
2022-09-26T16:48:32.482Z,64.02
2022-09-26T16:53:34.971Z,64.58
2022-09-26T16:58:37.404Z,66.05
2022-09-26T17:03:42.357Z,66.99
2022-09-26T17:08:44.744Z,68.01
2022-09-26T17:13:49.404Z,68.88
2022-09-26T17:18:51.840Z,69.64
2022-09-26T17:23:54.332Z,70.19
2022-09-26T17:28:58.063Z,70.83
2022-09-26T17:34:01.963Z,71.61
2022-09-26T17:39:07.699Z,72.22
2022-09-26T17:44:10.200Z,71.88
2022-09-26T17:49:13.659Z,71.61
2022-09-26T17:54:17.589Z,71.57
2022-09-26T17:59:23.174Z,71.74
2022-09-26T18:04:27.239Z,71.58
2022-09-26T18:09:32.321Z,72.15
2022-09-26T18:14:35.379Z,72.26
2022-09-26T18:19:38.177Z,72.43
2022-09-26T18:24:41.475Z,72.31
2022-09-26T18:29:47.222Z,71.83
2022-09-26T18:34:49.651Z,71.94
2022-09-26T18:39:55.737Z,71.82
2022-09-26T18:45:04.237Z,72.11
2022-09-26T18:50:07.082Z,71.98
2022-09-26T18:55:19.904Z,72.91
2022-09-26T19:00:22.334Z,73.10
2022-09-26T19:05:26.164Z,73.10
2022-09-26T19:10:29.489Z,72.95
2022-09-26T19:15:32.055Z,72.66
2022-09-26T19:20:34.521Z,72.81
2022-09-26T19:25:37.243Z,73.13
2022-09-26T19:30:39.902Z,73.49
2022-09-26T19:35:42.746Z,73.84
2022-09-26T19:40:48.831Z,74.23
2022-09-26T19:45:53.565Z,74.49
2022-09-26T19:50:56.127Z,74.34
2022-09-26T19:56:00.334Z,74.47
2022-09-26T20:01:11.573Z,74.59
2022-09-26T20:06:46.357Z,74.94
2022-09-26T20:11:48.862Z,75.04
2022-09-26T20:17:03.103Z,75.14
2022-09-26T20:22:07.406Z,74.73
2022-09-26T20:27:15.239Z,74.89
2022-09-26T20:32:17.727Z,75.06
2022-09-26T20:37:21.124Z,75.17
2022-09-26T20:42:27.942Z,75.33
2022-09-26T20:47:31.125Z,74.96
2022-09-26T20:52:33.587Z,74.97
2022-09-26T20:57:36.206Z,74.76
2022-09-26T21:02:39.237Z,75.03
2022-09-26T21:07:41.942Z,75.35
2022-09-26T21:12:44.330Z,76.08
2022-09-26T21:17:47.351Z,76.64
2022-09-26T21:22:50.436Z,76.92
2022-09-26T21:27:57.245Z,77.33
2022-09-26T21:33:00.092Z,77.71
2022-09-26T21:38:02.680Z,77.97
2022-09-26T21:43:08.854Z,77.98
2022-09-26T21:48:12.240Z,77.94
2022-09-26T21:53:16.904Z,78.00
2022-09-26T21:58:22.382Z,78.28
2022-09-26T22:03:24.763Z,78.39
2022-09-26T22:08:27.187Z,78.65
2022-09-26T22:13:29.902Z,79.01
2022-09-26T22:18:32.933Z,79.46
2022-09-26T22:23:35.509Z,79.61
2022-09-26T22:28:38.007Z,79.85
2022-09-26T22:33:43.465Z,80.25
2022-09-26T22:38:46.239Z,80.27
2022-09-26T22:43:49.187Z,80.29
2022-09-26T22:48:51.855Z,80.74
2022-09-26T22:53:54.390Z,80.77
2022-09-26T22:58:56.821Z,80.69
2022-09-26T23:04:00.305Z,80.54
2022-09-26T23:09:02.783Z,80.48
2022-09-26T23:14:05.225Z,80.28
2022-09-26T23:19:07.668Z,80.43
2022-09-26T23:24:10.067Z,80.44
2022-09-26T23:29:13.252Z,80.74
2022-09-26T23:34:15.684Z,80.84
2022-09-26T23:39:18.663Z,81.18
2022-09-26T23:44:21.098Z,81.14
2022-09-26T23:49:23.527Z,81.10
2022-09-26T23:54:25.923Z,81.44
2022-09-26T23:59:28.377Z,81.51
